| State | Missouri | Latest | Low (252 cfs) | |
| River | Saint Francis River | Rating | Observed | Estimated |
| Updated | 2026-05-05 8:00 (25 minutes ago) | Flood - The river is flooding. Obstacles can be treacherous or deadly. The river should be avoided at this stage for casual trips and definitely for the inexperienced. Trips should be attempted only with protective gear and equipment.Flood | (none) | 4271 |
| Discharge | 252 cfs (median: 1130 cfs) | High - The river is high and potentially dangerous, especially for the young and / or inexperienced. Normal stream obstacles are sometimes difficult to navigate. Extended distances can be attempted, but canoe travel may not be advisable.High | (none) | 1665 |
| Height | 3.29 feet | Good - Conditions are ideal for a canoe or kayak. Boats typically will drag on fewer than one-quarter of riffles, if at all, and portages are unnecessary or rare. Normal float lengths can be attempted without a problem.Good | (none) | 671 |
| Trend | Steady (falling over 24 hours) | Low - River is low but can still be floated. Some riffles are okay but most come with significant dragging and might need a portage. Float lengths should be reduced to accommodate low flow, dragging, and portages.Low | (none) | 186 |
| USGS | USGS Site ( Duck Duck Go Maps) | Poor - River is too low to float comfortably. Most or all riffles will drag or must be portaged and some obstacles (such as slick shelf rock) cause undue problems. Avoid the river at this stage for casual paddling trips.Poor | (none) | 53 |
| Date | Start | End | Distance | Condition | Discharge | Height | Fishing | Details |
|---|
A total of 0 rows are displayed.
BLG - Bluegill
CCF - Channel Catfish
CP - Chain Pickerel
FWD - Freshwater Drum
GSF - Green Sunfish
KSB - Kentucky Spotted Bass
LMB - Largemouth Bass
LSF - Longear Sunfish
RB - Rock Bass / Goggle Eye
RSF - Redear Sunfish
RT - Rainbow Trout
SMB - Smallmouth Bass
WB - White Bass
WF - Whitefish
WL - WalleyeThe classic River Trips application is still available for use. It is updated with the new system using a data retrofit. It is no longer maintained. The original River Trips application is no longer updated (as of 1 Dec 2016) but can be checked for errors or for the condition of the data before it was converted to the new system.
| Observation | Height | Discharge | Maximum Discharge | Minimum Discharge | Mean Discharge | P05 | P10 | P20 | P25 | P50 (Median) | P75 | P80 | P90 | P95 |
|---|---|---|---|---|---|---|---|---|---|---|---|---|---|---|
| 2026-05-05 08:00 | 3.29 | 252 | 11000 (2017) | 113 (2012) | 2220 | 130 | 164 | 237 | 427 | 1130 | 3160 | 3830 | 7070 | 9160 |
| 2026-05-05 07:30 | 3.29 | 252 | 11000 (2017) | 113 (2012) | 2220 | 130 | 164 | 237 | 427 | 1130 | 3160 | 3830 | 7070 | 9160 |
| 2026-05-05 07:00 | 3.29 | 252 | 11000 (2017) | 113 (2012) | 2220 | 130 | 164 | 237 | 427 | 1130 | 3160 | 3830 | 7070 | 9160 |
| 2026-05-05 06:30 | 3.29 | 252 | 11000 (2017) | 113 (2012) | 2220 | 130 | 164 | 237 | 427 | 1130 | 3160 | 3830 | 7070 | 9160 |
| 2026-05-05 06:00 | 3.30 | 255 | 11000 (2017) | 113 (2012) | 2220 | 130 | 164 | 237 | 427 | 1130 | 3160 | 3830 | 7070 | 9160 |
| 2026-05-05 05:30 | 3.30 | 255 | 11000 (2017) | 113 (2012) | 2220 | 130 | 164 | 237 | 427 | 1130 | 3160 | 3830 | 7070 | 9160 |
| 2026-05-05 05:00 | 3.30 | 255 | 11000 (2017) | 113 (2012) | 2220 | 130 | 164 | 237 | 427 | 1130 | 3160 | 3830 | 7070 | 9160 |
| 2026-05-05 04:30 | 3.30 | 255 | 11000 (2017) | 113 (2012) | 2220 | 130 | 164 | 237 | 427 | 1130 | 3160 | 3830 | 7070 | 9160 |
| 2026-05-05 04:00 | 3.31 | 258 | 11000 (2017) | 113 (2012) | 2220 | 130 | 164 | 237 | 427 | 1130 | 3160 | 3830 | 7070 | 9160 |
| 2026-05-05 03:30 | 3.31 | 258 | 11000 (2017) | 113 (2012) | 2220 | 130 | 164 | 237 | 427 | 1130 | 3160 | 3830 | 7070 | 9160 |
| 2026-05-05 03:00 | 3.31 | 258 | 11000 (2017) | 113 (2012) | 2220 | 130 | 164 | 237 | 427 | 1130 | 3160 | 3830 | 7070 | 9160 |
| 2026-05-05 02:30 | 3.31 | 258 | 11000 (2017) | 113 (2012) | 2220 | 130 | 164 | 237 | 427 | 1130 | 3160 | 3830 | 7070 | 9160 |
| 2026-05-05 02:00 | 3.31 | 258 | 11000 (2017) | 113 (2012) | 2220 | 130 | 164 | 237 | 427 | 1130 | 3160 | 3830 | 7070 | 9160 |
| 2026-05-05 01:30 | 3.31 | 258 | 11000 (2017) | 113 (2012) | 2220 | 130 | 164 | 237 | 427 | 1130 | 3160 | 3830 | 7070 | 9160 |
| 2026-05-05 01:00 | 3.31 | 258 | 11000 (2017) | 113 (2012) | 2220 | 130 | 164 | 237 | 427 | 1130 | 3160 | 3830 | 7070 | 9160 |
| 2026-05-05 00:30 | 3.32 | 261 | 11000 (2017) | 113 (2012) | 2220 | 130 | 164 | 237 | 427 | 1130 | 3160 | 3830 | 7070 | 9160 |
| 2026-05-05 00:00 | 3.32 | 261 | 11000 (2017) | 113 (2012) | 2220 | 130 | 164 | 237 | 427 | 1130 | 3160 | 3830 | 7070 | 9160 |
| 2026-05-04 23:30 | 3.32 | 261 | 11000 (2017) | 113 (2012) | 2220 | 130 | 164 | 237 | 427 | 1130 | 3160 | 3830 | 7070 | 9160 |
| 2026-05-04 23:00 | 3.32 | 261 | 11000 (2017) | 113 (2012) | 2220 | 130 | 164 | 237 | 427 | 1130 | 3160 | 3830 | 7070 | 9160 |
| 2026-05-04 22:30 | 3.33 | 264 | 20800 (2013) | 122 (2012) | 3430 | 136 | 163 | 255 | 455 | 1060 | 4900 | 7980 | 12000 | 15100 |
| 2026-05-04 22:00 | 3.33 | 264 | 20800 (2013) | 122 (2012) | 3430 | 136 | 163 | 255 | 455 | 1060 | 4900 | 7980 | 12000 | 15100 |
| 2026-05-04 21:30 | 3.33 | 264 | 20800 (2013) | 122 (2012) | 3430 | 136 | 163 | 255 | 455 | 1060 | 4900 | 7980 | 12000 | 15100 |
| 2026-05-04 21:00 | 3.33 | 264 | 20800 (2013) | 122 (2012) | 3430 | 136 | 163 | 255 | 455 | 1060 | 4900 | 7980 | 12000 | 15100 |
| 2026-05-04 20:30 | 3.34 | 267 | 20800 (2013) | 122 (2012) | 3430 | 136 | 163 | 255 | 455 | 1060 | 4900 | 7980 | 12000 | 15100 |
| 2026-05-04 20:00 | 3.34 | 267 | 20800 (2013) | 122 (2012) | 3430 | 136 | 163 | 255 | 455 | 1060 | 4900 | 7980 | 12000 | 15100 |
| 2026-05-04 19:30 | 3.34 | 267 | 20800 (2013) | 122 (2012) | 3430 | 136 | 163 | 255 | 455 | 1060 | 4900 | 7980 | 12000 | 15100 |
| 2026-05-04 19:00 | 3.35 | 270 | 20800 (2013) | 122 (2012) | 3430 | 136 | 163 | 255 | 455 | 1060 | 4900 | 7980 | 12000 | 15100 |
| 2026-05-04 18:30 | 3.35 | 270 | 20800 (2013) | 122 (2012) | 3430 | 136 | 163 | 255 | 455 | 1060 | 4900 | 7980 | 12000 | 15100 |
| 2026-05-04 18:00 | 3.35 | 270 | 20800 (2013) | 122 (2012) | 3430 | 136 | 163 | 255 | 455 | 1060 | 4900 | 7980 | 12000 | 15100 |
| 2026-05-04 17:30 | 3.35 | 270 | 20800 (2013) | 122 (2012) | 3430 | 136 | 163 | 255 | 455 | 1060 | 4900 | 7980 | 12000 | 15100 |
| 2026-05-04 17:00 | 3.32 | 261 | 20800 (2013) | 122 (2012) | 3430 | 136 | 163 | 255 | 455 | 1060 | 4900 | 7980 | 12000 | 15100 |
| 2026-05-04 16:30 | 3.36 | 273 | 20800 (2013) | 122 (2012) | 3430 | 136 | 163 | 255 | 455 | 1060 | 4900 | 7980 | 12000 | 15100 |
| 2026-05-04 16:00 | 3.37 | 276 | 20800 (2013) | 122 (2012) | 3430 | 136 | 163 | 255 | 455 | 1060 | 4900 | 7980 | 12000 | 15100 |
| 2026-05-04 15:30 | 3.35 | 270 | 20800 (2013) | 122 (2012) | 3430 | 136 | 163 | 255 | 455 | 1060 | 4900 | 7980 | 12000 | 15100 |
| 2026-05-04 15:00 | 3.36 | 273 | 20800 (2013) | 122 (2012) | 3430 | 136 | 163 | 255 | 455 | 1060 | 4900 | 7980 | 12000 | 15100 |
| 2026-05-04 14:30 | 3.36 | 273 | 20800 (2013) | 122 (2012) | 3430 | 136 | 163 | 255 | 455 | 1060 | 4900 | 7980 | 12000 | 15100 |
| 2026-05-04 14:00 | 3.38 | 279 | 20800 (2013) | 122 (2012) | 3430 | 136 | 163 | 255 | 455 | 1060 | 4900 | 7980 | 12000 | 15100 |
| 2026-05-04 13:30 | 3.38 | 279 | 20800 (2013) | 122 (2012) | 3430 | 136 | 163 | 255 | 455 | 1060 | 4900 | 7980 | 12000 | 15100 |
| 2026-05-04 13:00 | 3.40 | 286 | 20800 (2013) | 122 (2012) | 3430 | 136 | 163 | 255 | 455 | 1060 | 4900 | 7980 | 12000 | 15100 |
| 2026-05-04 12:30 | 3.39 | 283 | 20800 (2013) | 122 (2012) | 3430 | 136 | 163 | 255 | 455 | 1060 | 4900 | 7980 | 12000 | 15100 |
| 2026-05-04 12:00 | 3.36 | 273 | 20800 (2013) | 122 (2012) | 3430 | 136 | 163 | 255 | 455 | 1060 | 4900 | 7980 | 12000 | 15100 |
| 2026-05-04 11:30 | 3.37 | 276 | 20800 (2013) | 122 (2012) | 3430 | 136 | 163 | 255 | 455 | 1060 | 4900 | 7980 | 12000 | 15100 |
| 2026-05-04 11:00 | 3.36 | 273 | 20800 (2013) | 122 (2012) | 3430 | 136 | 163 | 255 | 455 | 1060 | 4900 | 7980 | 12000 | 15100 |
| 2026-05-04 10:30 | 3.40 | 286 | 20800 (2013) | 122 (2012) | 3430 | 136 | 163 | 255 | 455 | 1060 | 4900 | 7980 | 12000 | 15100 |
| 2026-05-04 10:00 | 3.40 | 286 | 20800 (2013) | 122 (2012) | 3430 | 136 | 163 | 255 | 455 | 1060 | 4900 | 7980 | 12000 | 15100 |
| 2026-05-04 09:30 | 3.41 | 289 | 20800 (2013) | 122 (2012) | 3430 | 136 | 163 | 255 | 455 | 1060 | 4900 | 7980 | 12000 | 15100 |
| 2026-05-04 09:00 | 3.41 | 289 | 20800 (2013) | 122 (2012) | 3430 | 136 | 163 | 255 | 455 | 1060 | 4900 | 7980 | 12000 | 15100 |
| 2026-05-04 08:30 | 3.42 | 292 | 20800 (2013) | 122 (2012) | 3430 | 136 | 163 | 255 | 455 | 1060 | 4900 | 7980 | 12000 | 15100 |
| 2026-05-04 08:00 | 3.42 | 292 | 20800 (2013) | 122 (2012) | 3430 | 136 | 163 | 255 | 455 | 1060 | 4900 | 7980 | 12000 | 15100 |
| 2026-05-04 07:30 | 3.42 | 292 | 20800 (2013) | 122 (2012) | 3430 | 136 | 163 | 255 | 455 | 1060 | 4900 | 7980 | 12000 | 15100 |
| 2026-05-04 07:00 | 3.43 | 295 | 20800 (2013) | 122 (2012) | 3430 | 136 | 163 | 255 | 455 | 1060 | 4900 | 7980 | 12000 | 15100 |
| 2026-05-04 06:30 | 3.43 | 295 | 20800 (2013) | 122 (2012) | 3430 | 136 | 163 | 255 | 455 | 1060 | 4900 | 7980 | 12000 | 15100 |
| 2026-05-04 06:00 | 3.43 | 295 | 20800 (2013) | 122 (2012) | 3430 | 136 | 163 | 255 | 455 | 1060 | 4900 | 7980 | 12000 | 15100 |
| 2026-05-04 05:30 | 3.44 | 298 | 20800 (2013) | 122 (2012) | 3430 | 136 | 163 | 255 | 455 | 1060 | 4900 | 7980 | 12000 | 15100 |
| 2026-05-04 05:00 | 3.44 | 298 | 20800 (2013) | 122 (2012) | 3430 | 136 | 163 | 255 | 455 | 1060 | 4900 | 7980 | 12000 | 15100 |
| 2026-05-04 04:30 | 3.44 | 298 | 20800 (2013) | 122 (2012) | 3430 | 136 | 163 | 255 | 455 | 1060 | 4900 | 7980 | 12000 | 15100 |
| 2026-05-04 04:00 | 3.44 | 298 | 20800 (2013) | 122 (2012) | 3430 | 136 | 163 | 255 | 455 | 1060 | 4900 | 7980 | 12000 | 15100 |
| 2026-05-04 03:30 | 3.45 | 302 | 20800 (2013) | 122 (2012) | 3430 | 136 | 163 | 255 | 455 | 1060 | 4900 | 7980 | 12000 | 15100 |
| 2026-05-04 03:00 | 3.45 | 302 | 20800 (2013) | 122 (2012) | 3430 | 136 | 163 | 255 | 455 | 1060 | 4900 | 7980 | 12000 | 15100 |
| 2026-05-04 02:30 | 3.45 | 302 | 20800 (2013) | 122 (2012) | 3430 | 136 | 163 | 255 | 455 | 1060 | 4900 | 7980 | 12000 | 15100 |
| 2026-05-04 02:00 | 3.46 | 305 | 20800 (2013) | 122 (2012) | 3430 | 136 | 163 | 255 | 455 | 1060 | 4900 | 7980 | 12000 | 15100 |
| 2026-05-04 01:30 | 3.46 | 305 | 20800 (2013) | 122 (2012) | 3430 | 136 | 163 | 255 | 455 | 1060 | 4900 | 7980 | 12000 | 15100 |
| 2026-05-04 01:00 | 3.46 | 305 | 20800 (2013) | 122 (2012) | 3430 | 136 | 163 | 255 | 455 | 1060 | 4900 | 7980 | 12000 | 15100 |
| 2026-05-04 00:30 | 3.47 | 308 | 20800 (2013) | 122 (2012) | 3430 | 136 | 163 | 255 | 455 | 1060 | 4900 | 7980 | 12000 | 15100 |
| 2026-05-04 00:00 | 3.47 | 308 | 20800 (2013) | 122 (2012) | 3430 | 136 | 163 | 255 | 455 | 1060 | 4900 | 7980 | 12000 | 15100 |
| 2026-05-03 23:30 | 3.47 | 308 | 20800 (2013) | 122 (2012) | 3430 | 136 | 163 | 255 | 455 | 1060 | 4900 | 7980 | 12000 | 15100 |
| 2026-05-03 23:00 | 3.48 | 312 | 20800 (2013) | 122 (2012) | 3430 | 136 | 163 | 255 | 455 | 1060 | 4900 | 7980 | 12000 | 15100 |
| 2026-05-03 22:30 | 3.48 | 312 | 11200 (2011) | 131 (2012) | 2610 | 146 | 165 | 280 | 402 | 1180 | 3570 | 4320 | 8640 | 10600 |
| 2026-05-03 22:00 | 3.48 | 312 | 11200 (2011) | 131 (2012) | 2610 | 146 | 165 | 280 | 402 | 1180 | 3570 | 4320 | 8640 | 10600 |
| 2026-05-03 21:30 | 3.48 | 312 | 11200 (2011) | 131 (2012) | 2610 | 146 | 165 | 280 | 402 | 1180 | 3570 | 4320 | 8640 | 10600 |
| 2026-05-03 21:00 | 3.49 | 315 | 11200 (2011) | 131 (2012) | 2610 | 146 | 165 | 280 | 402 | 1180 | 3570 | 4320 | 8640 | 10600 |
| 2026-05-03 20:30 | 3.49 | 315 | 11200 (2011) | 131 (2012) | 2610 | 146 | 165 | 280 | 402 | 1180 | 3570 | 4320 | 8640 | 10600 |
| 2026-05-03 20:00 | 3.49 | 315 | 11200 (2011) | 131 (2012) | 2610 | 146 | 165 | 280 | 402 | 1180 | 3570 | 4320 | 8640 | 10600 |
| 2026-05-03 19:30 | 3.49 | 315 | 11200 (2011) | 131 (2012) | 2610 | 146 | 165 | 280 | 402 | 1180 | 3570 | 4320 | 8640 | 10600 |
| 2026-05-03 19:00 | 3.50 | 318 | 11200 (2011) | 131 (2012) | 2610 | 146 | 165 | 280 | 402 | 1180 | 3570 | 4320 | 8640 | 10600 |
| 2026-05-03 18:30 | 3.50 | 318 | 11200 (2011) | 131 (2012) | 2610 | 146 | 165 | 280 | 402 | 1180 | 3570 | 4320 | 8640 | 10600 |
| 2026-05-03 18:00 | 3.50 | 318 | 11200 (2011) | 131 (2012) | 2610 | 146 | 165 | 280 | 402 | 1180 | 3570 | 4320 | 8640 | 10600 |
| 2026-05-03 17:30 | 3.51 | 322 | 11200 (2011) | 131 (2012) | 2610 | 146 | 165 | 280 | 402 | 1180 | 3570 | 4320 | 8640 | 10600 |
| 2026-05-03 17:00 | 3.51 | 322 | 11200 (2011) | 131 (2012) | 2610 | 146 | 165 | 280 | 402 | 1180 | 3570 | 4320 | 8640 | 10600 |
| 2026-05-03 16:30 | 3.52 | 325 | 11200 (2011) | 131 (2012) | 2610 | 146 | 165 | 280 | 402 | 1180 | 3570 | 4320 | 8640 | 10600 |
| 2026-05-03 16:00 | 3.52 | 325 | 11200 (2011) | 131 (2012) | 2610 | 146 | 165 | 280 | 402 | 1180 | 3570 | 4320 | 8640 | 10600 |
| 2026-05-03 15:30 | 3.52 | 325 | 11200 (2011) | 131 (2012) | 2610 | 146 | 165 | 280 | 402 | 1180 | 3570 | 4320 | 8640 | 10600 |
| 2026-05-03 15:00 | 3.53 | 328 | 11200 (2011) | 131 (2012) | 2610 | 146 | 165 | 280 | 402 | 1180 | 3570 | 4320 | 8640 | 10600 |
| 2026-05-03 14:30 | 3.53 | 328 | 11200 (2011) | 131 (2012) | 2610 | 146 | 165 | 280 | 402 | 1180 | 3570 | 4320 | 8640 | 10600 |
| 2026-05-03 14:00 | 3.52 | 325 | 11200 (2011) | 131 (2012) | 2610 | 146 | 165 | 280 | 402 | 1180 | 3570 | 4320 | 8640 | 10600 |
| 2026-05-03 13:30 | 3.54 | 332 | 11200 (2011) | 131 (2012) | 2610 | 146 | 165 | 280 | 402 | 1180 | 3570 | 4320 | 8640 | 10600 |
| 2026-05-03 13:00 | 3.53 | 328 | 11200 (2011) | 131 (2012) | 2610 | 146 | 165 | 280 | 402 | 1180 | 3570 | 4320 | 8640 | 10600 |
| 2026-05-03 12:30 | 3.51 | 322 | 11200 (2011) | 131 (2012) | 2610 | 146 | 165 | 280 | 402 | 1180 | 3570 | 4320 | 8640 | 10600 |
| 2026-05-03 12:00 | 3.53 | 328 | 11200 (2011) | 131 (2012) | 2610 | 146 | 165 | 280 | 402 | 1180 | 3570 | 4320 | 8640 | 10600 |
| 2026-05-03 11:30 | 3.50 | 318 | 11200 (2011) | 131 (2012) | 2610 | 146 | 165 | 280 | 402 | 1180 | 3570 | 4320 | 8640 | 10600 |
| 2026-05-03 11:00 | 3.55 | 335 | 11200 (2011) | 131 (2012) | 2610 | 146 | 165 | 280 | 402 | 1180 | 3570 | 4320 | 8640 | 10600 |
| 2026-05-03 10:30 | 3.55 | 335 | 11200 (2011) | 131 (2012) | 2610 | 146 | 165 | 280 | 402 | 1180 | 3570 | 4320 | 8640 | 10600 |
| 2026-05-03 10:00 | 3.56 | 339 | 11200 (2011) | 131 (2012) | 2610 | 146 | 165 | 280 | 402 | 1180 | 3570 | 4320 | 8640 | 10600 |
| 2026-05-03 09:30 | 3.56 | 339 | 11200 (2011) | 131 (2012) | 2610 | 146 | 165 | 280 | 402 | 1180 | 3570 | 4320 | 8640 | 10600 |
| 2026-05-03 09:00 | 3.56 | 339 | 11200 (2011) | 131 (2012) | 2610 | 146 | 165 | 280 | 402 | 1180 | 3570 | 4320 | 8640 | 10600 |
| 2026-05-03 08:30 | 3.56 | 339 | 11200 (2011) | 131 (2012) | 2610 | 146 | 165 | 280 | 402 | 1180 | 3570 | 4320 | 8640 | 10600 |
| 2026-05-03 08:00 | 3.57 | 342 | 11200 (2011) | 131 (2012) | 2610 | 146 | 165 | 280 | 402 | 1180 | 3570 | 4320 | 8640 | 10600 |
| 2026-05-03 07:30 | 3.57 | 342 | 11200 (2011) | 131 (2012) | 2610 | 146 | 165 | 280 | 402 | 1180 | 3570 | 4320 | 8640 | 10600 |
| 2026-05-03 07:00 | 3.57 | 342 | 11200 (2011) | 131 (2012) | 2610 | 146 | 165 | 280 | 402 | 1180 | 3570 | 4320 | 8640 | 10600 |
| 2026-05-03 06:30 | 3.58 | 346 | 11200 (2011) | 131 (2012) | 2610 | 146 | 165 | 280 | 402 | 1180 | 3570 | 4320 | 8640 | 10600 |
| 2026-05-03 06:00 | 3.58 | 346 | 11200 (2011) | 131 (2012) | 2610 | 146 | 165 | 280 | 402 | 1180 | 3570 | 4320 | 8640 | 10600 |
| 2026-05-03 05:30 | 3.59 | 349 | 11200 (2011) | 131 (2012) | 2610 | 146 | 165 | 280 | 402 | 1180 | 3570 | 4320 | 8640 | 10600 |
| 2026-05-03 05:00 | 3.59 | 349 | 11200 (2011) | 131 (2012) | 2610 | 146 | 165 | 280 | 402 | 1180 | 3570 | 4320 | 8640 | 10600 |
| 2026-05-03 04:30 | 3.60 | 353 | 11200 (2011) | 131 (2012) | 2610 | 146 | 165 | 280 | 402 | 1180 | 3570 | 4320 | 8640 | 10600 |
| 2026-05-03 04:00 | 3.60 | 353 | 11200 (2011) | 131 (2012) | 2610 | 146 | 165 | 280 | 402 | 1180 | 3570 | 4320 | 8640 | 10600 |
| 2026-05-03 03:30 | 3.61 | 356 | 11200 (2011) | 131 (2012) | 2610 | 146 | 165 | 280 | 402 | 1180 | 3570 | 4320 | 8640 | 10600 |
| 2026-05-03 03:00 | 3.61 | 356 | 11200 (2011) | 131 (2012) | 2610 | 146 | 165 | 280 | 402 | 1180 | 3570 | 4320 | 8640 | 10600 |
| 2026-05-03 02:30 | 3.59 | 349 | 11200 (2011) | 131 (2012) | 2610 | 146 | 165 | 280 | 402 | 1180 | 3570 | 4320 | 8640 | 10600 |
| 2026-05-03 02:00 | 3.61 | 356 | 11200 (2011) | 131 (2012) | 2610 | 146 | 165 | 280 | 402 | 1180 | 3570 | 4320 | 8640 | 10600 |
| 2026-05-03 01:30 | 3.61 | 356 | 11200 (2011) | 131 (2012) | 2610 | 146 | 165 | 280 | 402 | 1180 | 3570 | 4320 | 8640 | 10600 |
| 2026-05-03 01:00 | 3.61 | 356 | 11200 (2011) | 131 (2012) | 2610 | 146 | 165 | 280 | 402 | 1180 | 3570 | 4320 | 8640 | 10600 |
| 2026-05-03 00:30 | 3.63 | 363 | 11200 (2011) | 131 (2012) | 2610 | 146 | 165 | 280 | 402 | 1180 | 3570 | 4320 | 8640 | 10600 |
| 2026-05-03 00:00 | 3.63 | 363 | 11200 (2011) | 131 (2012) | 2610 | 146 | 165 | 280 | 402 | 1180 | 3570 | 4320 | 8640 | 10600 |
| 2026-05-02 23:30 | 3.64 | 367 | 11200 (2011) | 131 (2012) | 2610 | 146 | 165 | 280 | 402 | 1180 | 3570 | 4320 | 8640 | 10600 |
| 2026-05-02 23:00 | 3.64 | 367 | 11200 (2011) | 131 (2012) | 2610 | 146 | 165 | 280 | 402 | 1180 | 3570 | 4320 | 8640 | 10600 |
| 2026-05-02 22:30 | 3.63 | 363 | 21300 (2011) | 144 (2012) | 2640 | 159 | 174 | 309 | 370 | 1020 | 2570 | 3980 | 7550 | 15200 |
| 2026-05-02 22:00 | 3.65 | 371 | 21300 (2011) | 144 (2012) | 2640 | 159 | 174 | 309 | 370 | 1020 | 2570 | 3980 | 7550 | 15200 |
| 2026-05-02 21:30 | 3.66 | 374 | 21300 (2011) | 144 (2012) | 2640 | 159 | 174 | 309 | 370 | 1020 | 2570 | 3980 | 7550 | 15200 |
| 2026-05-02 21:00 | 3.66 | 374 | 21300 (2011) | 144 (2012) | 2640 | 159 | 174 | 309 | 370 | 1020 | 2570 | 3980 | 7550 | 15200 |
| 2026-05-02 20:30 | 3.67 | 378 | 21300 (2011) | 144 (2012) | 2640 | 159 | 174 | 309 | 370 | 1020 | 2570 | 3980 | 7550 | 15200 |
| 2026-05-02 20:00 | 3.67 | 378 | 21300 (2011) | 144 (2012) | 2640 | 159 | 174 | 309 | 370 | 1020 | 2570 | 3980 | 7550 | 15200 |
| 2026-05-02 19:30 | 3.68 | 382 | 21300 (2011) | 144 (2012) | 2640 | 159 | 174 | 309 | 370 | 1020 | 2570 | 3980 | 7550 | 15200 |
| 2026-05-02 19:00 | 3.68 | 382 | 21300 (2011) | 144 (2012) | 2640 | 159 | 174 | 309 | 370 | 1020 | 2570 | 3980 | 7550 | 15200 |
| 2026-05-02 18:30 | 3.68 | 382 | 21300 (2011) | 144 (2012) | 2640 | 159 | 174 | 309 | 370 | 1020 | 2570 | 3980 | 7550 | 15200 |
| 2026-05-02 18:00 | 3.69 | 385 | 21300 (2011) | 144 (2012) | 2640 | 159 | 174 | 309 | 370 | 1020 | 2570 | 3980 | 7550 | 15200 |
| 2026-05-02 17:30 | 3.70 | 389 | 21300 (2011) | 144 (2012) | 2640 | 159 | 174 | 309 | 370 | 1020 | 2570 | 3980 | 7550 | 15200 |
| 2026-05-02 17:00 | 3.67 | 378 | 21300 (2011) | 144 (2012) | 2640 | 159 | 174 | 309 | 370 | 1020 | 2570 | 3980 | 7550 | 15200 |
| 2026-05-02 16:30 | 3.67 | 378 | 21300 (2011) | 144 (2012) | 2640 | 159 | 174 | 309 | 370 | 1020 | 2570 | 3980 | 7550 | 15200 |
| 2026-05-02 16:00 | 3.67 | 378 | 21300 (2011) | 144 (2012) | 2640 | 159 | 174 | 309 | 370 | 1020 | 2570 | 3980 | 7550 | 15200 |
| 2026-05-02 15:30 | 3.69 | 385 | 21300 (2011) | 144 (2012) | 2640 | 159 | 174 | 309 | 370 | 1020 | 2570 | 3980 | 7550 | 15200 |
| 2026-05-02 15:00 | 3.69 | 385 | 21300 (2011) | 144 (2012) | 2640 | 159 | 174 | 309 | 370 | 1020 | 2570 | 3980 | 7550 | 15200 |
| 2026-05-02 14:30 | 3.69 | 385 | 21300 (2011) | 144 (2012) | 2640 | 159 | 174 | 309 | 370 | 1020 | 2570 | 3980 | 7550 | 15200 |
| 2026-05-02 14:00 | 3.72 | 397 | 21300 (2011) | 144 (2012) | 2640 | 159 | 174 | 309 | 370 | 1020 | 2570 | 3980 | 7550 | 15200 |
| 2026-05-02 13:30 | 3.72 | 397 | 21300 (2011) | 144 (2012) | 2640 | 159 | 174 | 309 | 370 | 1020 | 2570 | 3980 | 7550 | 15200 |
| 2026-05-02 13:00 | 3.70 | 389 | 21300 (2011) | 144 (2012) | 2640 | 159 | 174 | 309 | 370 | 1020 | 2570 | 3980 | 7550 | 15200 |
| 2026-05-02 12:30 | 3.70 | 389 | 21300 (2011) | 144 (2012) | 2640 | 159 | 174 | 309 | 370 | 1020 | 2570 | 3980 | 7550 | 15200 |
| 2026-05-02 12:00 | 3.75 | 408 | 21300 (2011) | 144 (2012) | 2640 | 159 | 174 | 309 | 370 | 1020 | 2570 | 3980 | 7550 | 15200 |
| 2026-05-02 11:30 | 3.75 | 408 | 21300 (2011) | 144 (2012) | 2640 | 159 | 174 | 309 | 370 | 1020 | 2570 | 3980 | 7550 | 15200 |
| 2026-05-02 11:00 | 3.74 | 404 | 21300 (2011) | 144 (2012) | 2640 | 159 | 174 | 309 | 370 | 1020 | 2570 | 3980 | 7550 | 15200 |
| 2026-05-02 10:30 | 3.76 | 412 | 21300 (2011) | 144 (2012) | 2640 | 159 | 174 | 309 | 370 | 1020 | 2570 | 3980 | 7550 | 15200 |
| 2026-05-02 10:00 | 3.76 | 412 | 21300 (2011) | 144 (2012) | 2640 | 159 | 174 | 309 | 370 | 1020 | 2570 | 3980 | 7550 | 15200 |
| 2026-05-02 09:30 | 3.77 | 416 | 21300 (2011) | 144 (2012) | 2640 | 159 | 174 | 309 | 370 | 1020 | 2570 | 3980 | 7550 | 15200 |
| 2026-05-02 09:00 | 3.78 | 420 | 21300 (2011) | 144 (2012) | 2640 | 159 | 174 | 309 | 370 | 1020 | 2570 | 3980 | 7550 | 15200 |
| 2026-05-02 08:30 | 3.78 | 420 | 21300 (2011) | 144 (2012) | 2640 | 159 | 174 | 309 | 370 | 1020 | 2570 | 3980 | 7550 | 15200 |
| 2026-05-02 08:00 | 3.79 | 423 | 21300 (2011) | 144 (2012) | 2640 | 159 | 174 | 309 | 370 | 1020 | 2570 | 3980 | 7550 | 15200 |
| 2026-05-02 07:30 | 3.79 | 423 | 21300 (2011) | 144 (2012) | 2640 | 159 | 174 | 309 | 370 | 1020 | 2570 | 3980 | 7550 | 15200 |
| 2026-05-02 07:00 | 3.80 | 427 | 21300 (2011) | 144 (2012) | 2640 | 159 | 174 | 309 | 370 | 1020 | 2570 | 3980 | 7550 | 15200 |
| 2026-05-02 06:30 | 3.78 | 420 | 21300 (2011) | 144 (2012) | 2640 | 159 | 174 | 309 | 370 | 1020 | 2570 | 3980 | 7550 | 15200 |
| 2026-05-02 06:00 | 3.81 | 431 | 21300 (2011) | 144 (2012) | 2640 | 159 | 174 | 309 | 370 | 1020 | 2570 | 3980 | 7550 | 15200 |
| 2026-05-02 05:30 | 3.82 | 435 | 21300 (2011) | 144 (2012) | 2640 | 159 | 174 | 309 | 370 | 1020 | 2570 | 3980 | 7550 | 15200 |
| 2026-05-02 05:00 | 3.82 | 435 | 21300 (2011) | 144 (2012) | 2640 | 159 | 174 | 309 | 370 | 1020 | 2570 | 3980 | 7550 | 15200 |
| 2026-05-02 04:30 | 3.82 | 435 | 21300 (2011) | 144 (2012) | 2640 | 159 | 174 | 309 | 370 | 1020 | 2570 | 3980 | 7550 | 15200 |
| 2026-05-02 04:00 | 3.84 | 443 | 21300 (2011) | 144 (2012) | 2640 | 159 | 174 | 309 | 370 | 1020 | 2570 | 3980 | 7550 | 15200 |
| 2026-05-02 03:30 | 3.85 | 447 | 21300 (2011) | 144 (2012) | 2640 | 159 | 174 | 309 | 370 | 1020 | 2570 | 3980 | 7550 | 15200 |
| 2026-05-02 03:00 | 3.85 | 447 | 21300 (2011) | 144 (2012) | 2640 | 159 | 174 | 309 | 370 | 1020 | 2570 | 3980 | 7550 | 15200 |
| 2026-05-02 02:30 | 3.86 | 451 | 21300 (2011) | 144 (2012) | 2640 | 159 | 174 | 309 | 370 | 1020 | 2570 | 3980 | 7550 | 15200 |
| 2026-05-02 02:00 | 3.87 | 455 | 21300 (2011) | 144 (2012) | 2640 | 159 | 174 | 309 | 370 | 1020 | 2570 | 3980 | 7550 | 15200 |
| 2026-05-02 01:30 | 3.87 | 455 | 21300 (2011) | 144 (2012) | 2640 | 159 | 174 | 309 | 370 | 1020 | 2570 | 3980 | 7550 | 15200 |
| 2026-05-02 01:00 | 3.85 | 447 | 21300 (2011) | 144 (2012) | 2640 | 159 | 174 | 309 | 370 | 1020 | 2570 | 3980 | 7550 | 15200 |
| 2026-05-02 00:30 | 3.89 | 463 | 21300 (2011) | 144 (2012) | 2640 | 159 | 174 | 309 | 370 | 1020 | 2570 | 3980 | 7550 | 15200 |
| 2026-05-02 00:00 | 3.89 | 463 | 21300 (2011) | 144 (2012) | 2640 | 159 | 174 | 309 | 370 | 1020 | 2570 | 3980 | 7550 | 15200 |
| 2026-05-01 23:30 | 3.89 | 463 | 21300 (2011) | 144 (2012) | 2640 | 159 | 174 | 309 | 370 | 1020 | 2570 | 3980 | 7550 | 15200 |
| 2026-05-01 23:00 | 3.91 | 472 | 21300 (2011) | 144 (2012) | 2640 | 159 | 174 | 309 | 370 | 1020 | 2570 | 3980 | 7550 | 15200 |
| 2026-05-01 22:30 | 3.91 | 472 | 26900 (2017) | 162 (2012) | 2960 | 172 | 185 | 328 | 409 | 1390 | 2710 | 3910 | 8480 | 14700 |
| 2026-05-01 22:00 | 3.93 | 480 | 26900 (2017) | 162 (2012) | 2960 | 172 | 185 | 328 | 409 | 1390 | 2710 | 3910 | 8480 | 14700 |
| 2026-05-01 21:30 | 3.93 | 480 | 26900 (2017) | 162 (2012) | 2960 | 172 | 185 | 328 | 409 | 1390 | 2710 | 3910 | 8480 | 14700 |
| 2026-05-01 21:00 | 3.94 | 484 | 26900 (2017) | 162 (2012) | 2960 | 172 | 185 | 328 | 409 | 1390 | 2710 | 3910 | 8480 | 14700 |
| 2026-05-01 20:30 | 3.95 | 488 | 26900 (2017) | 162 (2012) | 2960 | 172 | 185 | 328 | 409 | 1390 | 2710 | 3910 | 8480 | 14700 |
| 2026-05-01 20:00 | 3.96 | 493 | 26900 (2017) | 162 (2012) | 2960 | 172 | 185 | 328 | 409 | 1390 | 2710 | 3910 | 8480 | 14700 |
| 2026-05-01 19:30 | 3.97 | 497 | 26900 (2017) | 162 (2012) | 2960 | 172 | 185 | 328 | 409 | 1390 | 2710 | 3910 | 8480 | 14700 |
| 2026-05-01 19:00 | 3.98 | 501 | 26900 (2017) | 162 (2012) | 2960 | 172 | 185 | 328 | 409 | 1390 | 2710 | 3910 | 8480 | 14700 |
| 2026-05-01 18:30 | 3.98 | 501 | 26900 (2017) | 162 (2012) | 2960 | 172 | 185 | 328 | 409 | 1390 | 2710 | 3910 | 8480 | 14700 |
| 2026-05-01 18:00 | 3.96 | 493 | 26900 (2017) | 162 (2012) | 2960 | 172 | 185 | 328 | 409 | 1390 | 2710 | 3910 | 8480 | 14700 |
| 2026-05-01 17:30 | 3.96 | 493 | 26900 (2017) | 162 (2012) | 2960 | 172 | 185 | 328 | 409 | 1390 | 2710 | 3910 | 8480 | 14700 |
| 2026-05-01 17:00 | 4.01 | 514 | 26900 (2017) | 162 (2012) | 2960 | 172 | 185 | 328 | 409 | 1390 | 2710 | 3910 | 8480 | 14700 |
| 2026-05-01 16:30 | 3.97 | 497 | 26900 (2017) | 162 (2012) | 2960 | 172 | 185 | 328 | 409 | 1390 | 2710 | 3910 | 8480 | 14700 |
| 2026-05-01 16:00 | 4.02 | 518 | 26900 (2017) | 162 (2012) | 2960 | 172 | 185 | 328 | 409 | 1390 | 2710 | 3910 | 8480 | 14700 |
| 2026-05-01 15:30 | 3.99 | 505 | 26900 (2017) | 162 (2012) | 2960 | 172 | 185 | 328 | 409 | 1390 | 2710 | 3910 | 8480 | 14700 |
| 2026-05-01 15:00 | 4.02 | 518 | 26900 (2017) | 162 (2012) | 2960 | 172 | 185 | 328 | 409 | 1390 | 2710 | 3910 | 8480 | 14700 |
| 2026-05-01 14:30 | 4.00 | 510 | 26900 (2017) | 162 (2012) | 2960 | 172 | 185 | 328 | 409 | 1390 | 2710 | 3910 | 8480 | 14700 |
| 2026-05-01 14:00 | 4.04 | 527 | 26900 (2017) | 162 (2012) | 2960 | 172 | 185 | 328 | 409 | 1390 | 2710 | 3910 | 8480 | 14700 |
| 2026-05-01 13:30 | 4.05 | 532 | 26900 (2017) | 162 (2012) | 2960 | 172 | 185 | 328 | 409 | 1390 | 2710 | 3910 | 8480 | 14700 |
| 2026-05-01 13:00 | 4.02 | 518 | 26900 (2017) | 162 (2012) | 2960 | 172 | 185 | 328 | 409 | 1390 | 2710 | 3910 | 8480 | 14700 |
| 2026-05-01 12:30 | 4.09 | 549 | 26900 (2017) | 162 (2012) | 2960 | 172 | 185 | 328 | 409 | 1390 | 2710 | 3910 | 8480 | 14700 |
| 2026-05-01 12:00 | 4.07 | 540 | 26900 (2017) | 162 (2012) | 2960 | 172 | 185 | 328 | 409 | 1390 | 2710 | 3910 | 8480 | 14700 |
| 2026-05-01 11:30 | 4.11 | 558 | 26900 (2017) | 162 (2012) | 2960 | 172 | 185 | 328 | 409 | 1390 | 2710 | 3910 | 8480 | 14700 |
| 2026-05-01 11:00 | 4.07 | 540 | 26900 (2017) | 162 (2012) | 2960 | 172 | 185 | 328 | 409 | 1390 | 2710 | 3910 | 8480 | 14700 |
| 2026-05-01 10:30 | 4.12 | 563 | 26900 (2017) | 162 (2012) | 2960 | 172 | 185 | 328 | 409 | 1390 | 2710 | 3910 | 8480 | 14700 |
| 2026-05-01 10:00 | 4.13 | 567 | 26900 (2017) | 162 (2012) | 2960 | 172 | 185 | 328 | 409 | 1390 | 2710 | 3910 | 8480 | 14700 |
| 2026-05-01 09:30 | 4.11 | 558 | 26900 (2017) | 162 (2012) | 2960 | 172 | 185 | 328 | 409 | 1390 | 2710 | 3910 | 8480 | 14700 |
| 2026-05-01 09:00 | 4.14 | 572 | 26900 (2017) | 162 (2012) | 2960 | 172 | 185 | 328 | 409 | 1390 | 2710 | 3910 | 8480 | 14700 |
| 2026-05-01 08:30 | 4.16 | 581 | 26900 (2017) | 162 (2012) | 2960 | 172 | 185 | 328 | 409 | 1390 | 2710 | 3910 | 8480 | 14700 |
| 2026-05-01 08:00 | 4.16 | 581 | 26900 (2017) | 162 (2012) | 2960 | 172 | 185 | 328 | 409 | 1390 | 2710 | 3910 | 8480 | 14700 |
| 2026-05-01 07:30 | 4.18 | 591 | 26900 (2017) | 162 (2012) | 2960 | 172 | 185 | 328 | 409 | 1390 | 2710 | 3910 | 8480 | 14700 |
| 2026-05-01 07:00 | 4.18 | 591 | 26900 (2017) | 162 (2012) | 2960 | 172 | 185 | 328 | 409 | 1390 | 2710 | 3910 | 8480 | 14700 |
| 2026-05-01 06:30 | 4.20 | 600 | 26900 (2017) | 162 (2012) | 2960 | 172 | 185 | 328 | 409 | 1390 | 2710 | 3910 | 8480 | 14700 |
| 2026-05-01 06:00 | 4.21 | 605 | 26900 (2017) | 162 (2012) | 2960 | 172 | 185 | 328 | 409 | 1390 | 2710 | 3910 | 8480 | 14700 |
| 2026-05-01 05:30 | 4.22 | 609 | 26900 (2017) | 162 (2012) | 2960 | 172 | 185 | 328 | 409 | 1390 | 2710 | 3910 | 8480 | 14700 |
| 2026-05-01 05:00 | 4.23 | 614 | 26900 (2017) | 162 (2012) | 2960 | 172 | 185 | 328 | 409 | 1390 | 2710 | 3910 | 8480 | 14700 |
| 2026-05-01 04:30 | 4.24 | 619 | 26900 (2017) | 162 (2012) | 2960 | 172 | 185 | 328 | 409 | 1390 | 2710 | 3910 | 8480 | 14700 |
| 2026-05-01 04:00 | 4.25 | 624 | 26900 (2017) | 162 (2012) | 2960 | 172 | 185 | 328 | 409 | 1390 | 2710 | 3910 | 8480 | 14700 |
| 2026-05-01 03:30 | 4.26 | 629 | 26900 (2017) | 162 (2012) | 2960 | 172 | 185 | 328 | 409 | 1390 | 2710 | 3910 | 8480 | 14700 |
| 2026-05-01 03:00 | 4.28 | 638 | 26900 (2017) | 162 (2012) | 2960 | 172 | 185 | 328 | 409 | 1390 | 2710 | 3910 | 8480 | 14700 |
| 2026-05-01 02:30 | 4.29 | 643 | 26900 (2017) | 162 (2012) | 2960 | 172 | 185 | 328 | 409 | 1390 | 2710 | 3910 | 8480 | 14700 |
| 2026-05-01 02:00 | 4.30 | 648 | 26900 (2017) | 162 (2012) | 2960 | 172 | 185 | 328 | 409 | 1390 | 2710 | 3910 | 8480 | 14700 |
| 2026-05-01 01:30 | 4.32 | 658 | 26900 (2017) | 162 (2012) | 2960 | 172 | 185 | 328 | 409 | 1390 | 2710 | 3910 | 8480 | 14700 |
| 2026-05-01 01:00 | 4.30 | 648 | 26900 (2017) | 162 (2012) | 2960 | 172 | 185 | 328 | 409 | 1390 | 2710 | 3910 | 8480 | 14700 |
| 2026-05-01 00:30 | 4.35 | 673 | 26900 (2017) | 162 (2012) | 2960 | 172 | 185 | 328 | 409 | 1390 | 2710 | 3910 | 8480 | 14700 |
| 2026-05-01 00:00 | 4.36 | 678 | 26900 (2017) | 162 (2012) | 2960 | 172 | 185 | 328 | 409 | 1390 | 2710 | 3910 | 8480 | 14700 |
| 2026-04-30 23:30 | 4.38 | 688 | 26900 (2017) | 162 (2012) | 2960 | 172 | 185 | 328 | 409 | 1390 | 2710 | 3910 | 8480 | 14700 |
| 2026-04-30 23:00 | 4.39 | 693 | 26900 (2017) | 162 (2012) | 2960 | 172 | 185 | 328 | 409 | 1390 | 2710 | 3910 | 8480 | 14700 |
| 2026-04-30 22:30 | 4.41 | 703 | 88600 (2017) | 162 (2012) | 4650 | 178 | 201 | 307 | 388 | 1050 | 2970 | 3100 | 4820 | 39400 |
| 2026-04-30 22:00 | 4.42 | 708 | 88600 (2017) | 162 (2012) | 4650 | 178 | 201 | 307 | 388 | 1050 | 2970 | 3100 | 4820 | 39400 |
| 2026-04-30 21:30 | 4.44 | 719 | 88600 (2017) | 162 (2012) | 4650 | 178 | 201 | 307 | 388 | 1050 | 2970 | 3100 | 4820 | 39400 |
| 2026-04-30 21:00 | 4.46 | 729 | 88600 (2017) | 162 (2012) | 4650 | 178 | 201 | 307 | 388 | 1050 | 2970 | 3100 | 4820 | 39400 |
| 2026-04-30 20:30 | 4.47 | 734 | 88600 (2017) | 162 (2012) | 4650 | 178 | 201 | 307 | 388 | 1050 | 2970 | 3100 | 4820 | 39400 |
| 2026-04-30 20:00 | 4.49 | 745 | 88600 (2017) | 162 (2012) | 4650 | 178 | 201 | 307 | 388 | 1050 | 2970 | 3100 | 4820 | 39400 |
| 2026-04-30 19:30 | 4.51 | 756 | 88600 (2017) | 162 (2012) | 4650 | 178 | 201 | 307 | 388 | 1050 | 2970 | 3100 | 4820 | 39400 |
| 2026-04-30 19:00 | 4.53 | 766 | 88600 (2017) | 162 (2012) | 4650 | 178 | 201 | 307 | 388 | 1050 | 2970 | 3100 | 4820 | 39400 |
| 2026-04-30 18:30 | 4.55 | 777 | 88600 (2017) | 162 (2012) | 4650 | 178 | 201 | 307 | 388 | 1050 | 2970 | 3100 | 4820 | 39400 |
| 2026-04-30 18:00 | 4.57 | 788 | 88600 (2017) | 162 (2012) | 4650 | 178 | 201 | 307 | 388 | 1050 | 2970 | 3100 | 4820 | 39400 |
| 2026-04-30 17:30 | 4.60 | 804 | 88600 (2017) | 162 (2012) | 4650 | 178 | 201 | 307 | 388 | 1050 | 2970 | 3100 | 4820 | 39400 |
| 2026-04-30 17:00 | 4.62 | 815 | 88600 (2017) | 162 (2012) | 4650 | 178 | 201 | 307 | 388 | 1050 | 2970 | 3100 | 4820 | 39400 |
| 2026-04-30 16:30 | 4.63 | 821 | 88600 (2017) | 162 (2012) | 4650 | 178 | 201 | 307 | 388 | 1050 | 2970 | 3100 | 4820 | 39400 |
| 2026-04-30 16:00 | 4.66 | 838 | 88600 (2017) | 162 (2012) | 4650 | 178 | 201 | 307 | 388 | 1050 | 2970 | 3100 | 4820 | 39400 |
| 2026-04-30 15:30 | 4.67 | 844 | 88600 (2017) | 162 (2012) | 4650 | 178 | 201 | 307 | 388 | 1050 | 2970 | 3100 | 4820 | 39400 |
| 2026-04-30 15:00 | 4.69 | 855 | 88600 (2017) | 162 (2012) | 4650 | 178 | 201 | 307 | 388 | 1050 | 2970 | 3100 | 4820 | 39400 |
| 2026-04-30 14:30 | 4.71 | 866 | 88600 (2017) | 162 (2012) | 4650 | 178 | 201 | 307 | 388 | 1050 | 2970 | 3100 | 4820 | 39400 |
| 2026-04-30 14:00 | 4.74 | 884 | 88600 (2017) | 162 (2012) | 4650 | 178 | 201 | 307 | 388 | 1050 | 2970 | 3100 | 4820 | 39400 |
| 2026-04-30 13:30 | 4.75 | 889 | 88600 (2017) | 162 (2012) | 4650 | 178 | 201 | 307 | 388 | 1050 | 2970 | 3100 | 4820 | 39400 |
| 2026-04-30 13:00 | 4.78 | 907 | 88600 (2017) | 162 (2012) | 4650 | 178 | 201 | 307 | 388 | 1050 | 2970 | 3100 | 4820 | 39400 |
| 2026-04-30 12:30 | 4.80 | 919 | 88600 (2017) | 162 (2012) | 4650 | 178 | 201 | 307 | 388 | 1050 | 2970 | 3100 | 4820 | 39400 |
| 2026-04-30 12:00 | 4.82 | 931 | 88600 (2017) | 162 (2012) | 4650 | 178 | 201 | 307 | 388 | 1050 | 2970 | 3100 | 4820 | 39400 |
| 2026-04-30 11:30 | 4.85 | 949 | 88600 (2017) | 162 (2012) | 4650 | 178 | 201 | 307 | 388 | 1050 | 2970 | 3100 | 4820 | 39400 |
| 2026-04-30 11:00 | 4.86 | 955 | 88600 (2017) | 162 (2012) | 4650 | 178 | 201 | 307 | 388 | 1050 | 2970 | 3100 | 4820 | 39400 |
| 2026-04-30 10:30 | 4.85 | 949 | 88600 (2017) | 162 (2012) | 4650 | 178 | 201 | 307 | 388 | 1050 | 2970 | 3100 | 4820 | 39400 |
| 2026-04-30 10:00 | 4.91 | 985 | 88600 (2017) | 162 (2012) | 4650 | 178 | 201 | 307 | 388 | 1050 | 2970 | 3100 | 4820 | 39400 |
| 2026-04-30 09:30 | 4.94 | 1000 | 88600 (2017) | 162 (2012) | 4650 | 178 | 201 | 307 | 388 | 1050 | 2970 | 3100 | 4820 | 39400 |
| 2026-04-30 09:00 | 4.96 | 1020 | 88600 (2017) | 162 (2012) | 4650 | 178 | 201 | 307 | 388 | 1050 | 2970 | 3100 | 4820 | 39400 |
| 2026-04-30 08:30 | 4.99 | 1040 | 88600 (2017) | 162 (2012) | 4650 | 178 | 201 | 307 | 388 | 1050 | 2970 | 3100 | 4820 | 39400 |
| 2026-04-30 08:00 | 5.02 | 1050 | 88600 (2017) | 162 (2012) | 4650 | 178 | 201 | 307 | 388 | 1050 | 2970 | 3100 | 4820 | 39400 |
| 2026-04-30 07:30 | 5.04 | 1070 | 88600 (2017) | 162 (2012) | 4650 | 178 | 201 | 307 | 388 | 1050 | 2970 | 3100 | 4820 | 39400 |
| 2026-04-30 07:00 | 5.07 | 1090 | 88600 (2017) | 162 (2012) | 4650 | 178 | 201 | 307 | 388 | 1050 | 2970 | 3100 | 4820 | 39400 |
| 2026-04-30 06:30 | 5.10 | 1110 | 88600 (2017) | 162 (2012) | 4650 | 178 | 201 | 307 | 388 | 1050 | 2970 | 3100 | 4820 | 39400 |
| 2026-04-30 06:00 | 5.13 | 1130 | 88600 (2017) | 162 (2012) | 4650 | 178 | 201 | 307 | 388 | 1050 | 2970 | 3100 | 4820 | 39400 |
| 2026-04-30 05:30 | 5.14 | 1130 | 88600 (2017) | 162 (2012) | 4650 | 178 | 201 | 307 | 388 | 1050 | 2970 | 3100 | 4820 | 39400 |
| 2026-04-30 05:00 | 5.19 | 1170 | 88600 (2017) | 162 (2012) | 4650 | 178 | 201 | 307 | 388 | 1050 | 2970 | 3100 | 4820 | 39400 |
| 2026-04-30 04:30 | 5.22 | 1190 | 88600 (2017) | 162 (2012) | 4650 | 178 | 201 | 307 | 388 | 1050 | 2970 | 3100 | 4820 | 39400 |
| 2026-04-30 04:00 | 5.24 | 1200 | 88600 (2017) | 162 (2012) | 4650 | 178 | 201 | 307 | 388 | 1050 | 2970 | 3100 | 4820 | 39400 |
| 2026-04-30 03:30 | 5.28 | 1230 | 88600 (2017) | 162 (2012) | 4650 | 178 | 201 | 307 | 388 | 1050 | 2970 | 3100 | 4820 | 39400 |
| 2026-04-30 03:00 | 5.31 | 1250 | 88600 (2017) | 162 (2012) | 4650 | 178 | 201 | 307 | 388 | 1050 | 2970 | 3100 | 4820 | 39400 |
| 2026-04-30 02:30 | 5.34 | 1270 | 88600 (2017) | 162 (2012) | 4650 | 178 | 201 | 307 | 388 | 1050 | 2970 | 3100 | 4820 | 39400 |
| 2026-04-30 02:00 | 5.37 | 1290 | 88600 (2017) | 162 (2012) | 4650 | 178 | 201 | 307 | 388 | 1050 | 2970 | 3100 | 4820 | 39400 |
| 2026-04-30 01:30 | 5.40 | 1310 | 88600 (2017) | 162 (2012) | 4650 | 178 | 201 | 307 | 388 | 1050 | 2970 | 3100 | 4820 | 39400 |
| 2026-04-30 01:00 | 5.43 | 1330 | 88600 (2017) | 162 (2012) | 4650 | 178 | 201 | 307 | 388 | 1050 | 2970 | 3100 | 4820 | 39400 |
| 2026-04-30 00:30 | 5.46 | 1350 | 88600 (2017) | 162 (2012) | 4650 | 178 | 201 | 307 | 388 | 1050 | 2970 | 3100 | 4820 | 39400 |
| 2026-04-30 00:00 | 5.50 | 1380 | 88600 (2017) | 162 (2012) | 4650 | 178 | 201 | 307 | 388 | 1050 | 2970 | 3100 | 4820 | 39400 |
| 2026-04-29 23:30 | 5.53 | 1410 | 88600 (2017) | 162 (2012) | 4650 | 178 | 201 | 307 | 388 | 1050 | 2970 | 3100 | 4820 | 39400 |
| 2026-04-29 23:00 | 5.56 | 1430 | 88600 (2017) | 162 (2012) | 4650 | 178 | 201 | 307 | 388 | 1050 | 2970 | 3100 | 4820 | 39400 |
| 2026-04-29 22:30 | 5.58 | 1440 | 42600 (2017) | 174 (2012) | 3370 | 191 | 216 | 349 | 394 | 697 | 3530 | 4970 | 8730 | 19800 |
| 2026-04-29 22:00 | 5.60 | 1460 | 42600 (2017) | 174 (2012) | 3370 | 191 | 216 | 349 | 394 | 697 | 3530 | 4970 | 8730 | 19800 |
| 2026-04-29 21:30 | 5.62 | 1470 | 42600 (2017) | 174 (2012) | 3370 | 191 | 216 | 349 | 394 | 697 | 3530 | 4970 | 8730 | 19800 |
| 2026-04-29 21:00 | 5.64 | 1490 | 42600 (2017) | 174 (2012) | 3370 | 191 | 216 | 349 | 394 | 697 | 3530 | 4970 | 8730 | 19800 |
| 2026-04-29 20:30 | 5.65 | 1500 | 42600 (2017) | 174 (2012) | 3370 | 191 | 216 | 349 | 394 | 697 | 3530 | 4970 | 8730 | 19800 |
| 2026-04-29 20:00 | 5.65 | 1500 | 42600 (2017) | 174 (2012) | 3370 | 191 | 216 | 349 | 394 | 697 | 3530 | 4970 | 8730 | 19800 |
| 2026-04-29 19:30 | 5.65 | 1500 | 42600 (2017) | 174 (2012) | 3370 | 191 | 216 | 349 | 394 | 697 | 3530 | 4970 | 8730 | 19800 |
| 2026-04-29 19:00 | 5.64 | 1490 | 42600 (2017) | 174 (2012) | 3370 | 191 | 216 | 349 | 394 | 697 | 3530 | 4970 | 8730 | 19800 |
| 2026-04-29 18:30 | 5.61 | 1470 | 42600 (2017) | 174 (2012) | 3370 | 191 | 216 | 349 | 394 | 697 | 3530 | 4970 | 8730 | 19800 |
| 2026-04-29 18:00 | 5.57 | 1440 | 42600 (2017) | 174 (2012) | 3370 | 191 | 216 | 349 | 394 | 697 | 3530 | 4970 | 8730 | 19800 |
| 2026-04-29 17:30 | 5.49 | 1380 | 42600 (2017) | 174 (2012) | 3370 | 191 | 216 | 349 | 394 | 697 | 3530 | 4970 | 8730 | 19800 |
| 2026-04-29 17:00 | 5.42 | 1330 | 42600 (2017) | 174 (2012) | 3370 | 191 | 216 | 349 | 394 | 697 | 3530 | 4970 | 8730 | 19800 |
| 2026-04-29 16:30 | 5.36 | 1280 | 42600 (2017) | 174 (2012) | 3370 | 191 | 216 | 349 | 394 | 697 | 3530 | 4970 | 8730 | 19800 |
| 2026-04-29 16:00 | 5.22 | 1190 | 42600 (2017) | 174 (2012) | 3370 | 191 | 216 | 349 | 394 | 697 | 3530 | 4970 | 8730 | 19800 |
| 2026-04-29 15:30 | 5.12 | 1120 | 42600 (2017) | 174 (2012) | 3370 | 191 | 216 | 349 | 394 | 697 | 3530 | 4970 | 8730 | 19800 |
| 2026-04-29 15:00 | 5.03 | 1060 | 42600 (2017) | 174 (2012) | 3370 | 191 | 216 | 349 | 394 | 697 | 3530 | 4970 | 8730 | 19800 |
| 2026-04-29 14:30 | 4.96 | 1020 | 42600 (2017) | 174 (2012) | 3370 | 191 | 216 | 349 | 394 | 697 | 3530 | 4970 | 8730 | 19800 |
| 2026-04-29 14:00 | 4.88 | 967 | 42600 (2017) | 174 (2012) | 3370 | 191 | 216 | 349 | 394 | 697 | 3530 | 4970 | 8730 | 19800 |
| 2026-04-29 13:30 | 4.87 | 961 | 42600 (2017) | 174 (2012) | 3370 | 191 | 216 | 349 | 394 | 697 | 3530 | 4970 | 8730 | 19800 |
| 2026-04-29 13:00 | 4.80 | 919 | 42600 (2017) | 174 (2012) | 3370 | 191 | 216 | 349 | 394 | 697 | 3530 | 4970 | 8730 | 19800 |
| 2026-04-29 12:30 | 4.80 | 919 | 42600 (2017) | 174 (2012) | 3370 | 191 | 216 | 349 | 394 | 697 | 3530 | 4970 | 8730 | 19800 |
| 2026-04-29 12:00 | 4.79 | 913 | 42600 (2017) | 174 (2012) | 3370 | 191 | 216 | 349 | 394 | 697 | 3530 | 4970 | 8730 | 19800 |
| 2026-04-29 11:30 | 4.79 | 913 | 42600 (2017) | 174 (2012) | 3370 | 191 | 216 | 349 | 394 | 697 | 3530 | 4970 | 8730 | 19800 |
| 2026-04-29 11:00 | 4.77 | 901 | 42600 (2017) | 174 (2012) | 3370 | 191 | 216 | 349 | 394 | 697 | 3530 | 4970 | 8730 | 19800 |
| 2026-04-29 10:30 | 4.81 | 925 | 42600 (2017) | 174 (2012) | 3370 | 191 | 216 | 349 | 394 | 697 | 3530 | 4970 | 8730 | 19800 |
| 2026-04-29 10:00 | 4.82 | 931 | 42600 (2017) | 174 (2012) | 3370 | 191 | 216 | 349 | 394 | 697 | 3530 | 4970 | 8730 | 19800 |
| 2026-04-29 09:30 | 4.84 | 943 | 42600 (2017) | 174 (2012) | 3370 | 191 | 216 | 349 | 394 | 697 | 3530 | 4970 | 8730 | 19800 |
| 2026-04-29 09:00 | 4.87 | 961 | 42600 (2017) | 174 (2012) | 3370 | 191 | 216 | 349 | 394 | 697 | 3530 | 4970 | 8730 | 19800 |
| 2026-04-29 08:30 | 4.88 | 967 | 42600 (2017) | 174 (2012) | 3370 | 191 | 216 | 349 | 394 | 697 | 3530 | 4970 | 8730 | 19800 |
| 2026-04-29 08:00 | 4.91 | 985 | 42600 (2017) | 174 (2012) | 3370 | 191 | 216 | 349 | 394 | 697 | 3530 | 4970 | 8730 | 19800 |
| 2026-04-29 07:30 | 4.94 | 1000 | 42600 (2017) | 174 (2012) | 3370 | 191 | 216 | 349 | 394 | 697 | 3530 | 4970 | 8730 | 19800 |
| 2026-04-29 07:00 | 4.98 | 1030 | 42600 (2017) | 174 (2012) | 3370 | 191 | 216 | 349 | 394 | 697 | 3530 | 4970 | 8730 | 19800 |
| 2026-04-29 06:30 | 5.00 | 1040 | 42600 (2017) | 174 (2012) | 3370 | 191 | 216 | 349 | 394 | 697 | 3530 | 4970 | 8730 | 19800 |
| 2026-04-29 06:00 | 5.03 | 1060 | 42600 (2017) | 174 (2012) | 3370 | 191 | 216 | 349 | 394 | 697 | 3530 | 4970 | 8730 | 19800 |
| 2026-04-29 05:30 | 5.07 | 1090 | 42600 (2017) | 174 (2012) | 3370 | 191 | 216 | 349 | 394 | 697 | 3530 | 4970 | 8730 | 19800 |
| 2026-04-29 05:00 | 5.09 | 1100 | 42600 (2017) | 174 (2012) | 3370 | 191 | 216 | 349 | 394 | 697 | 3530 | 4970 | 8730 | 19800 |
| 2026-04-29 04:30 | 5.14 | 1130 | 42600 (2017) | 174 (2012) | 3370 | 191 | 216 | 349 | 394 | 697 | 3530 | 4970 | 8730 | 19800 |
| 2026-04-29 04:00 | 5.18 | 1160 | 42600 (2017) | 174 (2012) | 3370 | 191 | 216 | 349 | 394 | 697 | 3530 | 4970 | 8730 | 19800 |
| 2026-04-29 03:30 | 5.22 | 1190 | 42600 (2017) | 174 (2012) | 3370 | 191 | 216 | 349 | 394 | 697 | 3530 | 4970 | 8730 | 19800 |
| 2026-04-29 03:00 | 5.26 | 1210 | 42600 (2017) | 174 (2012) | 3370 | 191 | 216 | 349 | 394 | 697 | 3530 | 4970 | 8730 | 19800 |
| 2026-04-29 02:30 | 5.30 | 1240 | 42600 (2017) | 174 (2012) | 3370 | 191 | 216 | 349 | 394 | 697 | 3530 | 4970 | 8730 | 19800 |
| 2026-04-29 02:00 | 5.34 | 1270 | 42600 (2017) | 174 (2012) | 3370 | 191 | 216 | 349 | 394 | 697 | 3530 | 4970 | 8730 | 19800 |
| 2026-04-29 01:30 | 5.38 | 1300 | 42600 (2017) | 174 (2012) | 3370 | 191 | 216 | 349 | 394 | 697 | 3530 | 4970 | 8730 | 19800 |
| 2026-04-29 01:00 | 5.42 | 1330 | 42600 (2017) | 174 (2012) | 3370 | 191 | 216 | 349 | 394 | 697 | 3530 | 4970 | 8730 | 19800 |
| 2026-04-29 00:30 | 5.46 | 1350 | 42600 (2017) | 174 (2012) | 3370 | 191 | 216 | 349 | 394 | 697 | 3530 | 4970 | 8730 | 19800 |
| 2026-04-29 00:00 | 5.51 | 1390 | 42600 (2017) | 174 (2012) | 3370 | 191 | 216 | 349 | 394 | 697 | 3530 | 4970 | 8730 | 19800 |
| 2026-04-28 23:30 | 5.55 | 1420 | 42600 (2017) | 174 (2012) | 3370 | 191 | 216 | 349 | 394 | 697 | 3530 | 4970 | 8730 | 19800 |
| 2026-04-28 23:00 | 5.57 | 1440 | 42600 (2017) | 174 (2012) | 3370 | 191 | 216 | 349 | 394 | 697 | 3530 | 4970 | 8730 | 19800 |
| 2026-04-28 22:30 | 5.60 | 1460 | 19100 (2011) | 188 (2012) | 2290 | 200 | 240 | 379 | 442 | 699 | 2350 | 4000 | 7350 | 11400 |
| 2026-04-28 22:00 | 5.63 | 1480 | 19100 (2011) | 188 (2012) | 2290 | 200 | 240 | 379 | 442 | 699 | 2350 | 4000 | 7350 | 11400 |
| 2026-04-28 21:30 | 5.66 | 1510 | 19100 (2011) | 188 (2012) | 2290 | 200 | 240 | 379 | 442 | 699 | 2350 | 4000 | 7350 | 11400 |
| 2026-04-28 21:00 | 5.68 | 1520 | 19100 (2011) | 188 (2012) | 2290 | 200 | 240 | 379 | 442 | 699 | 2350 | 4000 | 7350 | 11400 |
| 2026-04-28 20:30 | 5.68 | 1520 | 19100 (2011) | 188 (2012) | 2290 | 200 | 240 | 379 | 442 | 699 | 2350 | 4000 | 7350 | 11400 |
| 2026-04-28 20:00 | 5.67 | 1510 | 19100 (2011) | 188 (2012) | 2290 | 200 | 240 | 379 | 442 | 699 | 2350 | 4000 | 7350 | 11400 |
| 2026-04-28 19:30 | 5.64 | 1490 | 19100 (2011) | 188 (2012) | 2290 | 200 | 240 | 379 | 442 | 699 | 2350 | 4000 | 7350 | 11400 |
| 2026-04-28 19:00 | 5.57 | 1440 | 19100 (2011) | 188 (2012) | 2290 | 200 | 240 | 379 | 442 | 699 | 2350 | 4000 | 7350 | 11400 |
| 2026-04-28 18:30 | 5.46 | 1350 | 19100 (2011) | 188 (2012) | 2290 | 200 | 240 | 379 | 442 | 699 | 2350 | 4000 | 7350 | 11400 |
| 2026-04-28 18:00 | 5.29 | 1230 | 19100 (2011) | 188 (2012) | 2290 | 200 | 240 | 379 | 442 | 699 | 2350 | 4000 | 7350 | 11400 |
| 2026-04-28 17:30 | 5.06 | 1080 | 19100 (2011) | 188 (2012) | 2290 | 200 | 240 | 379 | 442 | 699 | 2350 | 4000 | 7350 | 11400 |
| 2026-04-28 17:00 | 4.80 | 919 | 19100 (2011) | 188 (2012) | 2290 | 200 | 240 | 379 | 442 | 699 | 2350 | 4000 | 7350 | 11400 |
| 2026-04-28 16:30 | 4.53 | 766 | 19100 (2011) | 188 (2012) | 2290 | 200 | 240 | 379 | 442 | 699 | 2350 | 4000 | 7350 | 11400 |
| 2026-04-28 16:00 | 4.35 | 673 | 19100 (2011) | 188 (2012) | 2290 | 200 | 240 | 379 | 442 | 699 | 2350 | 4000 | 7350 | 11400 |
| 2026-04-28 15:30 | 4.25 | 624 | 19100 (2011) | 188 (2012) | 2290 | 200 | 240 | 379 | 442 | 699 | 2350 | 4000 | 7350 | 11400 |
| 2026-04-28 15:00 | 4.21 | 605 | 19100 (2011) | 188 (2012) | 2290 | 200 | 240 | 379 | 442 | 699 | 2350 | 4000 | 7350 | 11400 |
| 2026-04-28 14:30 | 4.19 | 595 | 19100 (2011) | 188 (2012) | 2290 | 200 | 240 | 379 | 442 | 699 | 2350 | 4000 | 7350 | 11400 |
| 2026-04-28 14:00 | 4.18 | 591 | 19100 (2011) | 188 (2012) | 2290 | 200 | 240 | 379 | 442 | 699 | 2350 | 4000 | 7350 | 11400 |
| 2026-04-28 13:30 | 4.18 | 591 | 19100 (2011) | 188 (2012) | 2290 | 200 | 240 | 379 | 442 | 699 | 2350 | 4000 | 7350 | 11400 |
| 2026-04-28 13:00 | 4.18 | 591 | 19100 (2011) | 188 (2012) | 2290 | 200 | 240 | 379 | 442 | 699 | 2350 | 4000 | 7350 | 11400 |
| 2026-04-28 12:30 | 4.17 | 586 | 19100 (2011) | 188 (2012) | 2290 | 200 | 240 | 379 | 442 | 699 | 2350 | 4000 | 7350 | 11400 |
| 2026-04-28 12:00 | 4.17 | 586 | 19100 (2011) | 188 (2012) | 2290 | 200 | 240 | 379 | 442 | 699 | 2350 | 4000 | 7350 | 11400 |
| 2026-04-28 11:30 | 4.16 | 581 | 19100 (2011) | 188 (2012) | 2290 | 200 | 240 | 379 | 442 | 699 | 2350 | 4000 | 7350 | 11400 |
| 2026-04-28 11:00 | 4.14 | 572 | 19100 (2011) | 188 (2012) | 2290 | 200 | 240 | 379 | 442 | 699 | 2350 | 4000 | 7350 | 11400 |
| 2026-04-28 10:30 | 4.12 | 563 | 19100 (2011) | 188 (2012) | 2290 | 200 | 240 | 379 | 442 | 699 | 2350 | 4000 | 7350 | 11400 |
| 2026-04-28 10:00 | 4.11 | 558 | 19100 (2011) | 188 (2012) | 2290 | 200 | 240 | 379 | 442 | 699 | 2350 | 4000 | 7350 | 11400 |
| 2026-04-28 09:30 | 4.10 | 554 | 19100 (2011) | 188 (2012) | 2290 | 200 | 240 | 379 | 442 | 699 | 2350 | 4000 | 7350 | 11400 |
| 2026-04-28 09:00 | 4.08 | 545 | 19100 (2011) | 188 (2012) | 2290 | 200 | 240 | 379 | 442 | 699 | 2350 | 4000 | 7350 | 11400 |
| 2026-04-28 08:30 | 4.07 | 540 | 19100 (2011) | 188 (2012) | 2290 | 200 | 240 | 379 | 442 | 699 | 2350 | 4000 | 7350 | 11400 |
| 2026-04-28 08:00 | 4.05 | 532 | 19100 (2011) | 188 (2012) | 2290 | 200 | 240 | 379 | 442 | 699 | 2350 | 4000 | 7350 | 11400 |
| 2026-04-28 07:30 | 4.04 | 527 | 19100 (2011) | 188 (2012) | 2290 | 200 | 240 | 379 | 442 | 699 | 2350 | 4000 | 7350 | 11400 |
| 2026-04-28 07:00 | 4.03 | 523 | 19100 (2011) | 188 (2012) | 2290 | 200 | 240 | 379 | 442 | 699 | 2350 | 4000 | 7350 | 11400 |
| 2026-04-28 06:30 | 4.02 | 518 | 19100 (2011) | 188 (2012) | 2290 | 200 | 240 | 379 | 442 | 699 | 2350 | 4000 | 7350 | 11400 |
| 2026-04-28 06:00 | 4.01 | 514 | 19100 (2011) | 188 (2012) | 2290 | 200 | 240 | 379 | 442 | 699 | 2350 | 4000 | 7350 | 11400 |
| 2026-04-28 05:30 | 4.01 | 514 | 19100 (2011) | 188 (2012) | 2290 | 200 | 240 | 379 | 442 | 699 | 2350 | 4000 | 7350 | 11400 |
| 2026-04-28 05:00 | 4.01 | 514 | 19100 (2011) | 188 (2012) | 2290 | 200 | 240 | 379 | 442 | 699 | 2350 | 4000 | 7350 | 11400 |
| 2026-04-28 04:30 | 4.01 | 514 | 19100 (2011) | 188 (2012) | 2290 | 200 | 240 | 379 | 442 | 699 | 2350 | 4000 | 7350 | 11400 |
| 2026-04-28 04:00 | 4.02 | 518 | 19100 (2011) | 188 (2012) | 2290 | 200 | 240 | 379 | 442 | 699 | 2350 | 4000 | 7350 | 11400 |
| 2026-04-28 03:30 | 4.03 | 523 | 19100 (2011) | 188 (2012) | 2290 | 200 | 240 | 379 | 442 | 699 | 2350 | 4000 | 7350 | 11400 |
| 2026-04-28 03:00 | 4.03 | 523 | 19100 (2011) | 188 (2012) | 2290 | 200 | 240 | 379 | 442 | 699 | 2350 | 4000 | 7350 | 11400 |
| 2026-04-28 02:30 | 4.04 | 527 | 19100 (2011) | 188 (2012) | 2290 | 200 | 240 | 379 | 442 | 699 | 2350 | 4000 | 7350 | 11400 |
| 2026-04-28 02:00 | 4.05 | 532 | 19100 (2011) | 188 (2012) | 2290 | 200 | 240 | 379 | 442 | 699 | 2350 | 4000 | 7350 | 11400 |
| 2026-04-28 01:30 | 4.05 | 532 | 19100 (2011) | 188 (2012) | 2290 | 200 | 240 | 379 | 442 | 699 | 2350 | 4000 | 7350 | 11400 |
| 2026-04-28 01:00 | 4.06 | 536 | 19100 (2011) | 188 (2012) | 2290 | 200 | 240 | 379 | 442 | 699 | 2350 | 4000 | 7350 | 11400 |
| 2026-04-28 00:30 | 4.07 | 540 | 19100 (2011) | 188 (2012) | 2290 | 200 | 240 | 379 | 442 | 699 | 2350 | 4000 | 7350 | 11400 |
| 2026-04-28 00:00 | 4.07 | 540 | 19100 (2011) | 188 (2012) | 2290 | 200 | 240 | 379 | 442 | 699 | 2350 | 4000 | 7350 | 11400 |
| 2026-04-27 23:30 | 4.08 | 545 | 19100 (2011) | 188 (2012) | 2290 | 200 | 240 | 379 | 442 | 699 | 2350 | 4000 | 7350 | 11400 |
| 2026-04-27 23:00 | 4.08 | 545 | 19100 (2011) | 188 (2012) | 2290 | 200 | 240 | 379 | 442 | 699 | 2350 | 4000 | 7350 | 11400 |
A total of 355 rows are displayed for years 1984 through 2025.